Time;durP1;ratioP1;P1;durP2;ratioP2;P2;SDS_P1;SDS_P2;PMS_P1;PMS_P2;Temp;Humidity;BMP_temperature;BMP_pressure;BME280_temperature;BME280_humidity;BME280_pressure;Samples;Min_cycle;Max_cycle;Signal;HPM_P1;HPM_P2
2022/07/25 00:00:08;;;;;;;;;;;29.20;99.90;;;;;;5132921;27;19914;-72
2022/07/25 00:02:33;;;;;;;;;;;29.30;99.90;;;;;;5133486;27;19918;-69
2022/07/25 00:04:59;;;;;;;;;;;29.30;99.90;;;;;;5132550;27;19912;-68
2022/07/25 00:07:25;;;;;;;;;;;29.20;99.90;;;;;;5132814;27;19915;-69
2022/07/25 00:09:51;;;;;;;;;;;29.10;99.90;;;;;;5132578;27;19911;-69
2022/07/25 00:12:17;;;;;;;;;;;29.10;99.90;;;;;;5133220;27;19915;-70
2022/07/25 00:14:43;;;;;;;;;;;29.10;99.90;;;;;;5113744;27;19914;-70
2022/07/25 00:17:09;;;;;;;;;;;29.10;99.90;;;;;;5132799;27;20005;-71
2022/07/25 00:19:34;;;;;;;;;;;29.20;99.90;;;;;;5132403;27;19907;-69
2022/07/25 00:22:00;;;;;;;;;;;29.10;99.90;;;;;;5132324;27;19912;-70
2022/07/25 00:24:25;;;;;;;;;;;29.20;99.90;;;;;;5132056;27;19908;-70
2022/07/25 00:26:51;;;;;;;;;;;29.20;99.90;;;;;;5132069;27;19934;-71
2022/07/25 00:29:16;;;;;;;;;;;29.10;99.90;;;;;;5131979;27;19915;-70
2022/07/25 00:31:42;;;;;;;;;;;29.10;99.90;;;;;;5132221;27;19977;-70
2022/07/25 00:34:08;;;;;;;;;;;29.10;99.90;;;;;;5132070;27;19912;-70
2022/07/25 00:36:33;;;;;;;;;;;29.00;99.90;;;;;;5132058;27;19908;-69
2022/07/25 00:38:59;;;;;;;;;;;29.00;99.90;;;;;;5132174;27;20046;-71
2022/07/25 00:41:24;;;;;;;;;;;29.00;99.90;;;;;;5131955;27;20292;-69
2022/07/25 00:43:50;;;;;;;;;;;29.00;99.90;;;;;;5132090;27;19907;-70
2022/07/25 00:46:16;;;;;;;;;;;29.00;99.90;;;;;;5132023;27;19914;-69
2022/07/25 00:48:42;;;;;;;;;;;29.00;99.90;;;;;;5132000;27;19913;-69
2022/07/25 00:51:08;;;;;;;;;;;29.00;99.90;;;;;;5131731;27;20319;-70
2022/07/25 00:53:34;;;;;;;;;;;29.00;99.90;;;;;;5131805;27;19907;-69
2022/07/25 00:56:00;;;;;;;;;;;29.00;99.90;;;;;;5131368;27;19908;-70
2022/07/25 00:58:26;;;;;;;;;;;28.90;99.90;;;;;;5131620;27;19980;-69
2022/07/25 01:00:51;;;;;;;;;;;28.90;99.90;;;;;;5131655;27;19915;-70
2022/07/25 01:03:17;;;;;;;;;;;28.90;99.90;;;;;;5131727;27;19954;-70
2022/07/25 01:05:43;;;;;;;;;;;28.90;99.90;;;;;;5131424;27;19908;-70
2022/07/25 01:08:09;;;;;;;;;;;28.90;99.90;;;;;;5131374;27;19916;-70
2022/07/25 01:10:34;;;;;;;;;;;28.90;99.90;;;;;;5131637;27;19968;-70
2022/07/25 01:13:00;;;;;;;;;;;28.80;99.90;;;;;;5131627;27;19908;-69
2022/07/25 01:15:26;;;;;;;;;;;28.80;99.90;;;;;;5131179;27;19911;-69
2022/07/25 01:17:51;;;;;;;;;;;28.90;99.90;;;;;;5131356;27;19913;-69
2022/07/25 01:20:18;;;;;;;;;;;28.90;99.90;;;;;;5112744;28;19907;-69
2022/07/25 01:22:44;;;;;;;;;;;28.80;99.90;;;;;;5131174;27;20002;-69
2022/07/25 01:25:10;;;;;;;;;;;28.90;99.90;;;;;;5130817;27;20317;-68
2022/07/25 01:27:35;;;;;;;;;;;28.80;99.90;;;;;;5131175;27;19918;-69
2022/07/25 01:30:01;;;;;;;;;;;28.80;99.90;;;;;;5130819;27;19915;-69
2022/07/25 01:32:27;;;;;;;;;;;28.70;99.90;;;;;;5131123;28;19946;-69
2022/07/25 01:34:52;;;;;;;;;;;28.80;99.90;;;;;;5130997;28;19911;-69
2022/07/25 01:37:18;;;;;;;;;;;28.70;99.90;;;;;;5131039;27;19931;-69
2022/07/25 01:39:43;;;;;;;;;;;28.70;99.90;;;;;;5131162;28;19950;-69
2022/07/25 01:42:09;;;;;;;;;;;28.70;99.90;;;;;;5131107;28;20380;-69
2022/07/25 01:44:35;;;;;;;;;;;28.60;99.90;;;;;;5131007;28;20002;-69
2022/07/25 01:47:00;;;;;;;;;;;28.60;99.90;;;;;;5130988;28;19907;-70
2022/07/25 01:49:26;;;;;;;;;;;28.60;99.90;;;;;;5131185;28;19956;-70
2022/07/25 01:51:51;;;;;;;;;;;28.60;99.90;;;;;;5131092;28;20110;-70
2022/07/25 01:54:17;;;;;;;;;;;28.50;99.90;;;;;;5131028;28;19915;-70
2022/07/25 01:56:43;;;;;;;;;;;28.50;99.90;;;;;;5130918;28;19949;-69
2022/07/25 01:59:09;;;;;;;;;;;28.50;99.90;;;;;;5131012;28;19907;-69
2022/07/25 02:01:35;;;;;;;;;;;28.50;99.90;;;;;;5131216;28;19914;-70
2022/07/25 02:04:00;;;;;;;;;;;28.60;99.90;;;;;;5131107;28;19930;-70
2022/07/25 02:06:26;;;;;;;;;;;28.50;99.90;;;;;;5131543;28;20357;-72
2022/07/25 02:08:51;;;;;;;;;;;28.50;99.90;;;;;;5132352;28;19979;-70
2022/07/25 02:11:17;;;;;;;;;;;28.50;99.90;;;;;;5131805;28;20393;-70
2022/07/25 02:13:43;;;;;;;;;;;28.50;99.90;;;;;;5131173;28;19999;-69
2022/07/25 02:16:09;;;;;;;;;;;28.60;99.90;;;;;;5112393;28;19913;-69
2022/07/25 02:18:34;;;;;;;;;;;28.60;99.90;;;;;;5113040;28;19984;-69
2022/07/25 02:21:00;;;;;;;;;;;28.60;99.90;;;;;;5131279;28;19914;-70
2022/07/25 02:23:26;;;;;;;;;;;28.60;99.90;;;;;;5131455;28;19918;-69
2022/07/25 02:25:51;;;;;;;;;;;28.50;99.90;;;;;;5130856;28;19907;-70
2022/07/25 02:28:17;;;;;;;;;;;28.50;99.90;;;;;;5131095;28;19918;-69
2022/07/25 02:30:42;;;;;;;;;;;28.50;99.90;;;;;;5131141;28;20460;-69
2022/07/25 02:33:08;;;;;;;;;;;28.40;99.90;;;;;;5131220;28;19911;-69
2022/07/25 02:35:33;;;;;;;;;;;28.40;99.90;;;;;;5131156;28;19909;-69
2022/07/25 02:37:59;;;;;;;;;;;28.50;99.90;;;;;;5133441;27;19916;-70
2022/07/25 02:40:25;;;;;;;;;;;28.40;99.90;;;;;;5134860;27;19912;-69
2022/07/25 02:42:50;;;;;;;;;;;28.40;99.90;;;;;;5134710;27;19919;-70
2022/07/25 02:45:19;;;;;;;;;;;28.40;99.90;;;;;;5134049;27;19915;-70
2022/07/25 02:47:44;;;;;;;;;;;28.40;99.90;;;;;;5134343;27;19907;-70
2022/07/25 02:50:10;;;;;;;;;;;28.40;99.90;;;;;;5134471;27;19981;-70
2022/07/25 02:52:35;;;;;;;;;;;28.40;99.90;;;;;;5134229;27;19994;-70
2022/07/25 02:55:01;;;;;;;;;;;28.30;99.90;;;;;;5134130;27;20356;-69
2022/07/25 02:57:27;;;;;;;;;;;28.30;99.90;;;;;;5134355;27;20372;-69
2022/07/25 02:59:52;;;;;;;;;;;28.30;99.90;;;;;;5134588;27;19907;-70
2022/07/25 03:02:18;;;;;;;;;;;28.30;99.90;;;;;;5134610;27;19916;-70
2022/07/25 03:04:43;;;;;;;;;;;28.30;99.90;;;;;;5134914;27;20384;-70
2022/07/25 03:07:09;;;;;;;;;;;28.30;99.90;;;;;;5133925;27;20284;-70
2022/07/25 03:09:35;;;;;;;;;;;28.30;99.90;;;;;;5134016;27;19919;-70
2022/07/25 03:12:00;;;;;;;;;;;28.20;99.90;;;;;;5133824;27;20002;-70
2022/07/25 03:14:26;;;;;;;;;;;28.20;99.90;;;;;;5133530;27;19907;-70
2022/07/25 03:16:52;;;;;;;;;;;28.20;99.90;;;;;;5133500;27;19993;-69
2022/07/25 03:19:17;;;;;;;;;;;28.20;99.90;;;;;;5133636;27;19914;-69
2022/07/25 03:21:44;;;;;;;;;;;28.10;99.90;;;;;;5133576;27;19907;-70
2022/07/25 03:24:10;;;;;;;;;;;28.20;99.90;;;;;;5133543;27;19907;-70
2022/07/25 03:26:36;;;;;;;;;;;28.10;99.90;;;;;;5114697;27;20404;-69
2022/07/25 03:29:02;;;;;;;;;;;28.20;99.90;;;;;;5133693;27;20008;-69
2022/07/25 03:31:27;;;;;;;;;;;28.10;99.90;;;;;;5114884;27;19924;-69
2022/07/25 03:33:53;;;;;;;;;;;28.10;99.90;;;;;;5133527;27;20002;-69
2022/07/25 03:36:18;;;;;;;;;;;28.10;99.90;;;;;;5133218;27;19917;-70
2022/07/25 03:38:44;;;;;;;;;;;28.10;99.90;;;;;;5133224;27;19907;-70
2022/07/25 03:41:10;;;;;;;;;;;28.00;99.90;;;;;;5133280;27;19961;-70
2022/07/25 03:43:36;;;;;;;;;;;28.00;99.90;;;;;;5133124;27;19908;-69
2022/07/25 03:46:01;;;;;;;;;;;28.00;99.90;;;;;;5133127;27;19930;-70
2022/07/25 03:48:27;;;;;;;;;;;28.00;99.90;;;;;;5133246;27;20504;-71
2022/07/25 03:50:54;;;;;;;;;;;28.00;99.90;;;;;;5133185;27;20038;-70
2022/07/25 03:53:20;;;;;;;;;;;28.00;99.90;;;;;;5133273;27;20311;-70
2022/07/25 03:55:45;;;;;;;;;;;27.90;99.90;;;;;;5133169;27;19915;-69
2022/07/25 03:58:11;;;;;;;;;;;27.90;99.90;;;;;;5133483;27;20522;-69
2022/07/25 04:00:36;;;;;;;;;;;28.00;99.90;;;;;;5133755;27;20378;-70
2022/07/25 04:03:02;;;;;;;;;;;28.00;99.90;;;;;;5133666;27;19907;-70
2022/07/25 04:05:28;;;;;;;;;;;28.10;99.90;;;;;;5132770;27;20013;-71
2022/07/25 04:07:54;;;;;;;;;;;28.00;99.90;;;;;;5132895;27;19954;-71
2022/07/25 04:10:20;;;;;;;;;;;28.00;99.90;;;;;;5135781;27;19931;-72
2022/07/25 04:12:46;;;;;;;;;;;28.00;99.90;;;;;;5135261;27;19907;-70
2022/07/25 04:15:11;;;;;;;;;;;28.00;99.90;;;;;;5132728;27;20396;-70
2022/07/25 04:17:37;;;;;;;;;;;28.00;99.90;;;;;;5132870;27;19943;-70
2022/07/25 04:20:04;;;;;;;;;;;27.90;99.90;;;;;;5132934;27;19907;-70
2022/07/25 04:22:29;;;;;;;;;;;27.80;99.90;;;;;;5133161;27;19914;-69
2022/07/25 04:24:55;;;;;;;;;;;27.80;99.90;;;;;;5132705;27;19998;-70
2022/07/25 04:27:21;;;;;;;;;;;27.80;99.90;;;;;;5132549;27;19908;-69
2022/07/25 04:29:46;;;;;;;;;;;27.90;99.90;;;;;;5132023;27;19981;-69
2022/07/25 04:32:13;;;;;;;;;;;28.00;99.90;;;;;;5132412;27;19956;-69
2022/07/25 04:34:39;;;;;;;;;;;27.90;99.90;;;;;;5132163;27;19908;-69
2022/07/25 04:37:04;;;;;;;;;;;27.90;99.90;;;;;;5132338;27;19960;-69
2022/07/25 04:39:30;;;;;;;;;;;27.80;99.90;;;;;;5132635;27;20374;-69
2022/07/25 04:41:56;;;;;;;;;;;27.80;99.90;;;;;;5133184;27;19938;-69
2022/07/25 04:44:21;;;;;;;;;;;27.80;99.90;;;;;;5132791;27;19908;-71
2022/07/25 04:46:47;;;;;;;;;;;27.90;99.90;;;;;;5132114;27;19908;-70
2022/07/25 04:49:12;;;;;;;;;;;28.00;99.90;;;;;;5132428;27;19908;-71
2022/07/25 04:51:38;;;;;;;;;;;28.00;99.90;;;;;;5132964;27;19911;-71
2022/07/25 04:54:04;;;;;;;;;;;28.10;99.90;;;;;;5132244;27;19977;-68
2022/07/25 04:56:29;;;;;;;;;;;28.00;99.90;;;;;;5131734;27;19962;-71
2022/07/25 04:58:55;;;;;;;;;;;28.10;99.90;;;;;;5132003;27;19908;-71
2022/07/25 05:01:21;;;;;;;;;;;28.20;99.90;;;;;;5131437;27;20416;-69
2022/07/25 05:03:47;;;;;;;;;;;28.20;99.90;;;;;;5132100;27;19977;-69
2022/07/25 05:06:12;;;;;;;;;;;28.10;99.90;;;;;;5132682;27;20380;-70
2022/07/25 05:08:38;;;;;;;;;;;28.20;99.90;;;;;;5131984;27;20004;-70
2022/07/25 05:11:03;;;;;;;;;;;28.30;99.90;;;;;;5132291;27;19918;-71
2022/07/25 05:13:29;;;;;;;;;;;28.30;99.90;;;;;;5132070;27;19914;-69
2022/07/25 05:15:54;;;;;;;;;;;28.40;99.90;;;;;;5131566;27;20331;-69
2022/07/25 05:18:20;;;;;;;;;;;28.40;99.90;;;;;;5131727;27;19933;-71
2022/07/25 05:20:46;;;;;;;;;;;28.50;99.90;;;;;;5131557;27;19994;-71
2022/07/25 05:23:12;;;;;;;;;;;28.50;99.90;;;;;;5132224;27;20374;-69
2022/07/25 05:25:37;;;;;;;;;;;28.50;99.90;;;;;;5131785;27;20004;-69
2022/07/25 05:28:03;;;;;;;;;;;28.60;99.90;;;;;;5113969;28;19918;-70
2022/07/25 05:30:29;;;;;;;;;;;28.50;99.90;;;;;;5131502;28;19923;-69
2022/07/25 05:32:54;;;;;;;;;;;28.50;99.90;;;;;;5131708;28;20377;-71
2022/07/25 05:35:20;;;;;;;;;;;28.50;99.90;;;;;;5131722;28;20284;-69
2022/07/25 05:37:46;;;;;;;;;;;28.70;99.90;;;;;;5131771;28;19938;-68
2022/07/25 05:40:12;;;;;;;;;;;28.70;99.90;;;;;;5131783;28;19907;-69
2022/07/25 05:42:37;;;;;;;;;;;28.90;99.90;;;;;;5131978;28;19907;-69
2022/07/25 05:45:03;;;;;;;;;;;29.00;99.90;;;;;;5131196;28;19930;-69
2022/07/25 05:47:29;;;;;;;;;;;29.10;99.90;;;;;;5131281;28;20002;-70
2022/07/25 05:49:55;;;;;;;;;;;29.20;99.90;;;;;;5131184;28;20098;-72
2022/07/25 05:52:20;;;;;;;;;;;29.30;99.90;;;;;;5131491;28;19907;-72
2022/07/25 05:54:46;;;;;;;;;;;29.10;99.90;;;;;;5131248;28;19953;-72
2022/07/25 05:57:11;;;;;;;;;;;29.10;99.90;;;;;;5131752;28;20020;-71
2022/07/25 05:59:37;;;;;;;;;;;29.20;99.90;;;;;;5131287;28;20261;-70
2022/07/25 06:02:03;;;;;;;;;;;29.30;99.90;;;;;;5115228;28;20012;-71
2022/07/25 06:04:29;;;;;;;;;;;29.40;99.90;;;;;;5097042;28;19924;-70
2022/07/25 06:06:54;;;;;;;;;;;29.50;99.90;;;;;;5120257;28;19916;-72
2022/07/25 06:09:20;;;;;;;;;;;29.50;99.90;;;;;;5110453;28;20380;-73
2022/07/25 06:11:47;;;;;;;;;;;29.50;99.90;;;;;;5112027;28;20286;-71
2022/07/25 06:14:13;;;;;;;;;;;29.60;99.90;;;;;;5114420;28;20390;-71
2022/07/25 06:16:39;;;;;;;;;;;29.70;99.90;;;;;;5113852;28;20379;-71
2022/07/25 06:19:04;;;;;;;;;;;29.90;99.90;;;;;;5114027;28;19908;-71
2022/07/25 06:21:30;;;;;;;;;;;29.90;99.90;;;;;;5114388;28;19923;-72
2022/07/25 06:23:56;;;;;;;;;;;30.00;99.90;;;;;;5114541;28;20002;-72
2022/07/25 06:26:23;;;;;;;;;;;30.20;99.90;;;;;;5113839;28;19915;-72
2022/07/25 06:28:49;;;;;;;;;;;30.30;99.90;;;;;;5114747;28;20467;-71
2022/07/25 06:31:15;;;;;;;;;;;30.30;99.90;;;;;;5127173;27;19920;-72
2022/07/25 06:33:40;;;;;;;;;;;30.20;99.90;;;;;;5115272;28;19914;-71
2022/07/25 06:36:06;;;;;;;;;;;30.20;99.90;;;;;;5114373;28;19962;-71
2022/07/25 06:38:32;;;;;;;;;;;30.20;99.90;;;;;;5095587;28;19919;-71
2022/07/25 06:40:57;;;;;;;;;;;30.20;99.90;;;;;;5114148;28;19970;-71
2022/07/25 06:43:23;;;;;;;;;;;30.30;99.90;;;;;;5114161;28;20301;-71
2022/07/25 06:45:49;;;;;;;;;;;30.40;99.90;;;;;;5113676;28;20010;-71
2022/07/25 06:48:15;;;;;;;;;;;30.50;99.90;;;;;;5114289;28;19915;-71
2022/07/25 06:50:40;;;;;;;;;;;30.60;99.90;;;;;;5114552;28;19918;-72
2022/07/25 06:53:06;;;;;;;;;;;30.60;99.90;;;;;;5113915;28;19915;-71
2022/07/25 06:55:32;;;;;;;;;;;30.80;99.90;;;;;;5113706;28;20289;-71
2022/07/25 06:57:58;;;;;;;;;;;30.80;99.90;;;;;;5113696;28;19918;-72
2022/07/25 07:00:23;;;;;;;;;;;30.80;99.90;;;;;;5113514;28;19908;-72
2022/07/25 07:02:49;;;;;;;;;;;30.80;99.90;;;;;;5113554;28;19933;-71
2022/07/25 07:05:14;;;;;;;;;;;30.90;99.90;;;;;;5094934;28;19955;-71
2022/07/25 07:07:40;;;;;;;;;;;31.10;99.90;;;;;;5113201;28;19908;-72
2022/07/25 07:10:05;;;;;;;;;;;31.20;99.90;;;;;;5113378;28;19915;-71
2022/07/25 07:12:31;;;;;;;;;;;31.20;99.90;;;;;;5113797;28;20352;-72
2022/07/25 07:14:57;;;;;;;;;;;31.40;99.90;;;;;;5112857;28;19912;-71
2022/07/25 07:17:22;;;;;;;;;;;31.40;99.90;;;;;;5113286;28;19915;-71
2022/07/25 07:19:48;;;;;;;;;;;31.40;99.90;;;;;;5113431;28;19922;-72
2022/07/25 07:22:13;;;;;;;;;;;31.50;99.90;;;;;;5113661;28;19969;-71
2022/07/25 07:24:39;;;;;;;;;;;31.60;99.90;;;;;;5112801;28;19908;-72
2022/07/25 07:27:04;;;;;;;;;;;31.60;99.90;;;;;;5113720;28;19908;-72
2022/07/25 07:29:30;;;;;;;;;;;31.70;99.90;;;;;;5115879;28;20002;-71
2022/07/25 07:31:56;;;;;;;;;;;31.80;99.90;;;;;;5114276;28;20281;-71
2022/07/25 07:34:21;;;;;;;;;;;31.90;99.90;;;;;;5113758;28;19974;-72
2022/07/25 07:36:47;;;;;;;;;;;32.10;99.90;;;;;;5113292;28;19908;-72
2022/07/25 07:39:12;;;;;;;;;;;32.10;99.90;;;;;;5113909;28;19957;-72
2022/07/25 07:41:38;;;;;;;;;;;32.10;99.90;;;;;;5113734;28;19912;-72
2022/07/25 07:44:04;;;;;;;;;;;32.30;99.90;;;;;;5114247;28;20289;-71
2022/07/25 07:46:29;;;;;;;;;;;32.30;99.90;;;;;;5112757;28;19919;-71
2022/07/25 07:48:55;;;;;;;;;;;32.30;99.90;;;;;;5112906;28;20403;-72
2022/07/25 07:51:21;;;;;;;;;;;32.40;99.90;;;;;;5113146;28;19965;-71
2022/07/25 07:56:32;;;;;;;;;;;32.50;99.90;;;;;;5080714;28;19907;-72
2022/07/25 07:58:58;;;;;;;;;;;32.60;99.90;;;;;;5113236;28;19914;-71
2022/07/25 08:01:24;;;;;;;;;;;32.70;99.90;;;;;;5113168;28;20357;-71
2022/07/25 08:03:49;;;;;;;;;;;33.00;99.90;;;;;;5112968;28;20023;-69
2022/07/25 08:06:15;;;;;;;;;;;33.00;99.90;;;;;;5112637;28;20388;-67
2022/07/25 08:08:41;;;;;;;;;;;33.10;99.90;;;;;;5113201;28;20288;-71
2022/07/25 08:11:07;;;;;;;;;;;33.20;99.90;;;;;;5112267;28;19911;-70
2022/07/25 08:13:36;;;;;;;;;;;33.30;99.90;;;;;;5112215;28;19954;-71
2022/07/25 08:16:03;;;;;;;;;;;33.30;99.90;;;;;;5111575;28;19916;-71
2022/07/25 08:18:29;;;;;;;;;;;33.40;99.90;;;;;;5112228;28;19911;-71
2022/07/25 08:20:55;;;;;;;;;;;33.40;99.90;;;;;;5093816;28;20000;-71
2022/07/25 08:23:21;;;;;;;;;;;33.40;99.90;;;;;;5111988;28;19912;-71
2022/07/25 08:25:47;;;;;;;;;;;33.50;99.90;;;;;;5111679;28;19915;-72
2022/07/25 08:28:13;;;;;;;;;;;33.40;99.90;;;;;;5112083;28;19912;-71
2022/07/25 08:30:39;;;;;;;;;;;33.50;99.90;;;;;;5111911;28;20277;-72
2022/07/25 08:33:06;;;;;;;;;;;33.60;99.90;;;;;;5112309;28;19915;-72
2022/07/25 08:35:33;;;;;;;;;;;33.60;99.90;;;;;;5111102;28;19962;-73
2022/07/25 08:37:59;;;;;;;;;;;33.70;99.90;;;;;;5111926;28;19912;-72
2022/07/25 08:40:26;;;;;;;;;;;33.70;99.90;;;;;;5111635;28;19915;-71
2022/07/25 08:42:53;;;;;;;;;;;33.70;99.90;;;;;;5112156;28;19907;-72
2022/07/25 08:45:20;;;;;;;;;;;33.70;99.90;;;;;;5111632;28;20343;-71
2022/07/25 08:47:50;;;;;;;;;;;33.80;99.90;;;;;;5112203;28;19994;-73
2022/07/25 08:50:17;;;;;;;;;;;33.50;99.90;;;;;;5093834;28;19911;-71
2022/07/25 08:52:44;;;;;;;;;;;33.00;99.90;;;;;;5111829;28;19927;-72
2022/07/25 08:55:13;;;;;;;;;;;32.60;99.90;;;;;;5111313;28;19923;-72
2022/07/25 08:57:42;;;;;;;;;;;32.30;99.90;;;;;;5111166;28;20053;-73
2022/07/25 09:00:09;;;;;;;;;;;32.10;99.90;;;;;;5111479;28;19915;-72
2022/07/25 09:02:34;;;;;;;;;;;31.90;99.90;;;;;;5092953;28;19907;-72
2022/07/25 09:05:00;;;;;;;;;;;31.80;99.90;;;;;;5092837;28;19908;-72
2022/07/25 09:07:32;;;;;;;;;;;31.60;99.90;;;;;;5111802;28;19908;-72
2022/07/25 09:09:58;;;;;;;;;;;31.50;99.90;;;;;;5111070;28;19916;-71
2022/07/25 09:12:25;;;;;;;;;;;31.40;99.90;;;;;;5111463;28;19952;-71
2022/07/25 09:14:51;;;;;;;;;;;31.40;99.90;;;;;;5110797;28;19912;-71
2022/07/25 09:17:16;;;;;;;;;;;31.50;99.90;;;;;;5111259;28;19927;-73
2022/07/25 09:19:50;;;;;;;;;;;31.50;99.90;;;;;;5111186;28;20325;-72
2022/07/25 09:22:16;;;;;;;;;;;31.60;99.90;;;;;;5111322;28;20435;-72
2022/07/25 09:24:43;;;;;;;;;;;31.50;99.90;;;;;;5110657;28;19911;-72
2022/07/25 09:27:09;;;;;;;;;;;31.50;99.90;;;;;;5110910;28;19915;-74
2022/07/25 09:29:37;;;;;;;;;;;31.60;99.90;;;;;;5110872;28;19999;-72
2022/07/25 09:32:13;;;;;;;;;;;31.70;99.90;;;;;;5111069;28;19912;-73
2022/07/25 09:34:39;;;;;;;;;;;31.90;99.90;;;;;;5111095;28;19922;-72
2022/07/25 09:37:06;;;;;;;;;;;31.80;99.90;;;;;;5112447;28;20262;-73
2022/07/25 09:39:33;;;;;;;;;;;31.80;99.90;;;;;;5112132;28;20001;-73
2022/07/25 09:41:59;;;;;;;;;;;31.90;99.90;;;;;;5111474;28;19951;-73
2022/07/25 09:44:31;;;;;;;;;;;31.70;99.90;;;;;;5092511;28;19943;-71
2022/07/25 09:46:59;;;;;;;;;;;31.50;99.90;;;;;;5113879;28;20380;-73
2022/07/25 09:49:35;;;;;;;;;;;31.30;99.90;;;;;;5115725;28;19908;-73
2022/07/25 09:52:01;;;;;;;;;;;31.10;99.90;;;;;;5115612;28;20017;-72
2022/07/25 09:54:28;;;;;;;;;;;31.00;99.90;;;;;;5115773;28;19908;-72
2022/07/25 09:56:54;;;;;;;;;;;31.00;99.90;;;;;;5115487;28;19912;-70
2022/07/25 09:59:20;;;;;;;;;;;31.00;99.90;;;;;;5108184;28;20181;-72
2022/07/25 10:01:49;;;;;;;;;;;30.90;99.90;;;;;;5113232;28;19911;-70
2022/07/25 10:04:20;;;;;;;;;;;30.90;99.90;;;;;;5135653;27;19960;-74
2022/07/25 10:06:48;;;;;;;;;;;30.70;99.90;;;;;;5137260;27;19908;-73
2022/07/25 10:09:14;;;;;;;;;;;30.70;99.90;;;;;;5110791;27;19915;-73
2022/07/25 10:11:40;;;;;;;;;;;30.90;99.90;;;;;;5098731;28;19915;-73
2022/07/25 10:14:10;;;;;;;;;;;30.90;99.90;;;;;;5126720;27;19920;-74
2022/07/25 10:16:44;;;;;;;;;;;31.00;99.90;;;;;;5109365;27;19911;-68
2022/07/25 10:19:10;;;;;;;;;;;31.00;99.90;;;;;;5115125;28;19907;-69
2022/07/25 10:21:35;;;;;;;;;;;30.90;99.90;;;;;;5110400;28;20050;-69
2022/07/25 10:24:02;;;;;;;;;;;30.80;99.90;;;;;;5121868;27;19911;-71
2022/07/25 10:26:28;;;;;;;;;;;30.60;99.90;;;;;;5113661;27;20430;-69
2022/07/25 10:28:57;;;;;;;;;;;30.50;99.90;;;;;;5118283;27;20011;-69
2022/07/25 10:31:33;;;;;;;;;;;30.50;99.90;;;;;;5136233;27;19911;-69
2022/07/25 10:33:59;;;;;;;;;;;30.50;99.90;;;;;;5121112;27;20388;-68
2022/07/25 10:36:32;;;;;;;;;;;30.60;99.90;;;;;;5113117;27;20014;-67
2022/07/25 10:39:01;;;;;;;;;;;30.90;99.90;;;;;;5108772;27;20018;-69
2022/07/25 10:41:27;;;;;;;;;;;31.00;99.90;;;;;;5118540;27;19915;-69
2022/07/25 10:43:58;;;;;;;;;;;30.70;99.90;;;;;;5117650;27;19911;-68
2022/07/25 10:46:25;;;;;;;;;;;30.90;99.90;;;;;;5125658;27;20008;-71
2022/07/25 10:48:58;;;;;;;;;;;30.90;99.90;;;;;;5107382;27;19912;-69
2022/07/25 10:51:28;;;;;;;;;;;30.90;99.90;;;;;;5090146;28;19967;-68
2022/07/25 10:53:54;;;;;;;;;;;30.80;99.90;;;;;;5102451;28;20393;-68
2022/07/25 10:56:20;;;;;;;;;;;30.90;99.90;;;;;;5115317;28;19912;-67
2022/07/25 10:58:46;;;;;;;;;;;30.90;99.90;;;;;;5113270;28;19924;-68
2022/07/25 11:01:13;;;;;;;;;;;30.50;99.90;;;;;;5109635;28;19958;-68
2022/07/25 11:03:44;;;;;;;;;;;30.70;99.90;;;;;;5110761;28;20450;-68
2022/07/25 11:06:11;;;;;;;;;;;31.00;99.90;;;;;;5111749;28;19908;-69
2022/07/25 11:08:37;;;;;;;;;;;31.00;99.90;;;;;;5114361;28;19939;-67
2022/07/25 11:11:02;;;;;;;;;;;30.90;99.90;;;;;;5100991;28;19962;-68
2022/07/25 11:13:28;;;;;;;;;;;31.00;99.90;;;;;;5093863;28;19916;-70
2022/07/25 11:15:57;;;;;;;;;;;31.00;99.90;;;;;;5106860;27;20323;-70
2022/07/25 11:18:30;;;;;;;;;;;31.10;99.90;;;;;;5116192;27;19907;-69
2022/07/25 11:21:02;;;;;;;;;;;31.00;99.90;;;;;;5134389;27;19908;-69
2022/07/25 11:23:28;;;;;;;;;;;31.20;99.90;;;;;;5135183;27;20367;-70
2022/07/25 11:26:03;;;;;;;;;;;31.00;99.90;;;;;;5134715;27;19935;-70
2022/07/25 11:28:42;;;;;;;;;;;30.70;99.90;;;;;;5115304;27;20477;-68
2022/07/25 11:31:09;;;;;;;;;;;30.80;99.90;;;;;;5107701;28;19920;-67
2022/07/25 11:33:35;;;;;;;;;;;31.10;99.90;;;;;;5105369;28;19911;-68
2022/07/25 11:36:01;;;;;;;;;;;31.30;99.90;;;;;;5085036;28;19982;-69
2022/07/25 11:38:27;;;;;;;;;;;31.40;99.90;;;;;;5115010;27;19954;-69
2022/07/25 11:40:53;;;;;;;;;;;31.30;99.90;;;;;;5127941;27;19914;-69
2022/07/25 11:43:23;;;;;;;;;;;31.20;99.90;;;;;;5118674;27;19916;-69
2022/07/25 11:45:59;;;;;;;;;;;31.00;99.90;;;;;;5127001;27;19923;-68
2022/07/25 11:48:36;;;;;;;;;;;31.00;99.90;;;;;;5104618;27;19939;-68
2022/07/25 11:51:14;;;;;;;;;;;30.90;99.90;;;;;;5108669;27;19927;-69
2022/07/25 11:53:48;;;;;;;;;;;31.00;99.90;;;;;;5112848;27;19912;-69
2022/07/25 11:56:18;;;;;;;;;;;31.10;99.90;;;;;;5109762;27;19952;-70
2022/07/25 11:58:49;;;;;;;;;;;31.00;99.90;;;;;;5103307;28;20365;-69
2022/07/25 12:01:15;;;;;;;;;;;31.10;99.90;;;;;;5100369;28;19920;-69
2022/07/25 12:03:41;;;;;;;;;;;31.10;99.90;;;;;;5104049;27;19999;-67
2022/07/25 12:06:07;;;;;;;;;;;31.00;99.90;;;;;;5115835;27;19911;-68
2022/07/25 12:08:36;;;;;;;;;;;31.00;99.90;;;;;;5132557;27;19947;-66
2022/07/25 12:11:01;;;;;;;;;;;31.20;99.90;;;;;;5111761;28;20313;-67
2022/07/25 12:13:28;;;;;;;;;;;31.40;99.90;;;;;;5115613;27;19974;-68
2022/07/25 12:15:57;;;;;;;;;;;31.30;99.90;;;;;;5086947;28;19912;-69
2022/07/25 12:18:23;;;;;;;;;;;31.30;99.90;;;;;;5106383;28;20403;-68
2022/07/25 12:20:49;;;;;;;;;;;31.20;99.90;;;;;;5111401;28;19912;-68
2022/07/25 12:23:14;;;;;;;;;;;31.00;99.90;;;;;;5108166;28;19918;-68
2022/07/25 12:25:42;;;;;;;;;;;31.10;99.90;;;;;;5101728;28;20420;-67
2022/07/25 12:28:09;;;;;;;;;;;31.20;99.90;;;;;;5096860;28;19912;-68
2022/07/25 12:30:35;;;;;;;;;;;31.20;99.90;;;;;;5100424;27;19915;-67
2022/07/25 12:33:01;;;;;;;;;;;31.30;99.90;;;;;;5095994;27;19916;-69
2022/07/25 12:35:27;;;;;;;;;;;31.40;99.90;;;;;;5097220;27;19934;-68
2022/07/25 12:37:52;;;;;;;;;;;31.40;99.90;;;;;;5099005;27;20018;-66
2022/07/25 12:40:18;;;;;;;;;;;31.20;99.90;;;;;;5101469;27;20233;-67
2022/07/25 12:42:44;;;;;;;;;;;31.10;99.90;;;;;;5095658;28;19912;-67
2022/07/25 12:45:11;;;;;;;;;;;31.10;99.90;;;;;;5100458;27;19922;-68
2022/07/25 12:47:36;;;;;;;;;;;31.30;99.90;;;;;;5098885;28;19923;-67
2022/07/25 12:50:03;;;;;;;;;;;31.30;99.90;;;;;;5099683;27;20008;-67
2022/07/25 12:52:28;;;;;;;;;;;31.40;99.90;;;;;;5104765;27;19985;-68
2022/07/25 12:54:54;;;;;;;;;;;31.50;99.90;;;;;;5117864;27;19916;-66
2022/07/25 12:57:19;;;;;;;;;;;31.40;99.90;;;;;;5119315;27;19923;-67
2022/07/25 12:59:45;;;;;;;;;;;31.40;99.90;;;;;;5109522;28;19911;-67
2022/07/25 13:02:11;;;;;;;;;;;31.40;99.90;;;;;;5105667;27;19912;-66
2022/07/25 13:04:37;;;;;;;;;;;31.10;99.90;;;;;;5097957;27;20032;-69
2022/07/25 13:07:03;;;;;;;;;;;31.20;99.90;;;;;;5109053;27;20030;-66
2022/07/25 13:09:28;;;;;;;;;;;31.10;99.90;;;;;;5120513;27;19923;-67
2022/07/25 13:11:54;;;;;;;;;;;31.00;99.90;;;;;;5104245;28;19927;-67
2022/07/25 13:14:19;;;;;;;;;;;30.70;99.90;;;;;;5117889;27;19912;-67
2022/07/25 13:16:46;;;;;;;;;;;30.70;99.90;;;;;;5111824;28;19907;-66
2022/07/25 13:19:12;;;;;;;;;;;30.80;99.90;;;;;;5110781;28;20354;-67
2022/07/25 13:21:37;;;;;;;;;;;31.00;99.90;;;;;;5111082;28;19934;-69
2022/07/25 13:24:03;;;;;;;;;;;31.00;99.90;;;;;;5109190;28;20607;-67
2022/07/25 13:26:29;;;;;;;;;;;30.80;99.90;;;;;;5109974;28;19915;-67
2022/07/25 13:28:55;;;;;;;;;;;30.80;99.90;;;;;;5111594;28;19908;-67
2022/07/25 13:31:23;;;;;;;;;;;30.70;99.90;;;;;;5111357;27;20199;-66
2022/07/25 13:33:49;;;;;;;;;;;30.80;99.90;;;;;;5107475;28;20291;-70
2022/07/25 13:36:15;;;;;;;;;;;30.70;99.90;;;;;;5113875;28;19958;-69
2022/07/25 13:38:42;;;;;;;;;;;30.80;99.90;;;;;;5101070;28;19919;-66
2022/07/25 13:41:08;;;;;;;;;;;31.20;99.90;;;;;;5107376;28;19911;-68
2022/07/25 13:43:33;;;;;;;;;;;31.30;99.90;;;;;;5105395;28;19912;-68
2022/07/25 13:45:59;;;;;;;;;;;31.40;99.90;;;;;;5112157;28;19908;-67
2022/07/25 13:48:27;;;;;;;;;;;31.50;99.90;;;;;;5110750;28;19912;-67
2022/07/25 13:50:53;;;;;;;;;;;31.60;99.90;;;;;;5106938;28;20062;-68
2022/07/25 13:53:20;;;;;;;;;;;31.80;99.90;;;;;;5110915;28;19908;-68
2022/07/25 13:55:46;;;;;;;;;;;31.90;99.90;;;;;;5107078;28;19912;-69
2022/07/25 13:58:11;;;;;;;;;;;32.10;99.90;;;;;;5117035;28;19907;-67
2022/07/25 14:00:37;;;;;;;;;;;32.00;99.90;;;;;;5106871;28;19912;-67
2022/07/25 14:03:02;;;;;;;;;;;31.80;99.90;;;;;;5106185;28;19912;-67
2022/07/25 14:05:28;;;;;;;;;;;31.70;99.90;;;;;;5109964;28;19916;-67
2022/07/25 14:07:53;;;;;;;;;;;31.70;99.90;;;;;;5091981;28;19996;-67
2022/07/25 14:10:19;;;;;;;;;;;31.50;99.90;;;;;;5119158;28;19912;-66
2022/07/25 14:12:45;;;;;;;;;;;31.40;99.90;;;;;;5107056;28;19912;-65